createdAt,value
2023-02-16T00:00:16.966Z,89.06
2023-02-16T00:02:43.291Z,89.25
2023-02-16T00:05:28.448Z,89.32
2023-02-16T00:07:56.342Z,89.55
2023-02-16T00:10:23.258Z,89.49
2023-02-16T00:13:08.737Z,89.51
2023-02-16T00:15:35.433Z,89.05
2023-02-16T00:18:04.456Z,88.77
2023-02-16T00:20:30.855Z,88.97
2023-02-16T00:22:57.665Z,88.68
2023-02-16T00:25:24.799Z,88.55
2023-02-16T00:27:51.468Z,88.17
2023-02-16T00:30:21.944Z,88.43
2023-02-16T00:32:50.288Z,88.49
2023-02-16T00:35:19.361Z,88.21
2023-02-16T00:37:49.220Z,88.44
2023-02-16T00:40:16.798Z,88.08
2023-02-16T00:42:47.056Z,87.96
2023-02-16T00:45:22.388Z,88.32
2023-02-16T00:47:51.086Z,87.95
2023-02-16T00:50:31.132Z,87.80
2023-02-16T00:53:02.468Z,88.34
2023-02-16T00:55:35.249Z,87.37
2023-02-16T00:58:11.784Z,87.90
2023-02-16T01:00:43.028Z,87.72
2023-02-16T01:03:19.361Z,87.77
2023-02-16T01:05:45.807Z,87.34
2023-02-16T01:08:34.599Z,87.24
2023-02-16T01:11:09.914Z,87.00
2023-02-16T01:13:48.317Z,86.79
2023-02-16T01:16:18.583Z,86.64
2023-02-16T01:18:45.514Z,87.25
2023-02-16T01:21:12.114Z,86.63
2023-02-16T01:23:39.314Z,86.75
2023-02-16T01:26:11.647Z,86.43
2023-02-16T01:28:38.166Z,86.53
2023-02-16T01:31:06.251Z,86.02
2023-02-16T01:33:32.893Z,86.39
2023-02-16T01:35:59.311Z,86.22
2023-02-16T01:38:28.284Z,85.92
2023-02-16T01:41:22.527Z,86.70
2023-02-16T01:43:56.375Z,86.06
2023-02-16T01:46:33.150Z,86.06
2023-02-16T01:49:00.002Z,85.97
2023-02-16T01:51:30.744Z,86.22
2023-02-16T01:53:57.032Z,86.03
2023-02-16T01:56:35.598Z,85.93
2023-02-16T01:59:10.085Z,85.67
2023-02-16T02:01:41.508Z,85.60
2023-02-16T02:04:31.461Z,85.54
2023-02-16T02:06:57.861Z,85.04
2023-02-16T02:09:35.425Z,85.02
2023-02-16T02:12:16.879Z,85.80
2023-02-16T02:14:43.529Z,85.69
2023-02-16T02:17:17.928Z,85.62
2023-02-16T02:19:59.410Z,85.14
2023-02-16T02:22:50.770Z,85.07
2023-02-16T02:25:38.406Z,85.17
2023-02-16T02:28:27.508Z,85.06
2023-02-16T02:31:20.171Z,85.38
2023-02-16T02:34:14.793Z,85.94
2023-02-16T02:37:03.782Z,85.43
2023-02-16T02:39:46.993Z,85.97
2023-02-16T02:42:31.638Z,85.83
2023-02-16T02:45:04.819Z,85.88
2023-02-16T02:47:49.974Z,86.66
2023-02-16T02:50:41.032Z,87.35
2023-02-16T02:53:15.147Z,86.96
2023-02-16T02:56:06.997Z,87.39
2023-02-16T02:58:55.769Z,87.16
2023-02-16T03:01:24.364Z,87.61
2023-02-16T03:03:56.784Z,87.13
2023-02-16T03:06:30.108Z,87.53
2023-02-16T03:09:08.282Z,87.16
2023-02-16T03:11:53.519Z,87.51
2023-02-16T03:14:40.082Z,87.82
2023-02-16T03:17:29.210Z,87.88
2023-02-16T03:20:16.485Z,87.64
2023-02-16T03:23:01.543Z,88.29
2023-02-16T03:25:51.565Z,87.91
2023-02-16T03:28:40.627Z,88.22
2023-02-16T03:31:10.340Z,88.14
2023-02-16T03:33:36.857Z,87.63
2023-02-16T03:36:04.713Z,87.99
2023-02-16T03:38:31.674Z,87.31
2023-02-16T03:40:58.498Z,87.42
2023-02-16T03:43:26.423Z,87.48
2023-02-16T03:45:52.954Z,87.70
2023-02-16T03:48:20.064Z,87.58
2023-02-16T03:50:46.729Z,88.31
2023-02-16T03:53:13.193Z,87.59
2023-02-16T03:55:43.063Z,88.25
2023-02-16T03:58:11.709Z,88.08
2023-02-16T04:00:39.053Z,88.00
2023-02-16T04:03:06.558Z,88.59
2023-02-16T04:05:33.341Z,88.43
2023-02-16T04:07:59.862Z,88.65
2023-02-16T04:10:26.363Z,88.46
2023-02-16T04:12:52.897Z,88.41
2023-02-16T04:15:24.457Z,88.96
2023-02-16T04:17:50.868Z,88.51
2023-02-16T04:20:20.309Z,88.77
2023-02-16T04:22:47.337Z,88.39
2023-02-16T04:25:15.428Z,88.85
2023-02-16T04:27:42.734Z,88.63
2023-02-16T04:30:21.757Z,88.60
2023-02-16T04:32:48.611Z,88.62
2023-02-16T04:35:16.237Z,88.63
2023-02-16T04:37:42.708Z,88.94
2023-02-16T04:40:13.589Z,88.80
2023-02-16T04:42:41.042Z,88.70
2023-02-16T04:45:08.244Z,88.96
2023-02-16T04:47:34.761Z,88.53
2023-02-16T04:50:01.291Z,89.14
2023-02-16T04:52:27.744Z,88.85
2023-02-16T04:54:54.190Z,89.12
2023-02-16T04:57:22.451Z,89.04
2023-02-16T04:59:48.887Z,89.08
2023-02-16T05:02:15.318Z,88.22
2023-02-16T05:04:42.265Z,88.54
2023-02-16T05:07:08.786Z,88.49
2023-02-16T05:09:35.205Z,88.74
2023-02-16T05:12:20.121Z,89.01
2023-02-16T05:14:46.552Z,89.06
2023-02-16T05:17:16.455Z,88.81
2023-02-16T05:19:45.358Z,88.79
2023-02-16T05:22:12.757Z,88.75
2023-02-16T05:24:39.949Z,88.99
2023-02-16T05:27:08.849Z,88.50
2023-02-16T05:29:35.407Z,87.81
2023-02-16T05:32:04.596Z,88.64
2023-02-16T05:34:31.278Z,88.41
2023-02-16T05:36:57.754Z,88.50
2023-02-16T05:39:24.161Z,88.22
2023-02-16T05:41:50.660Z,88.54
2023-02-16T05:44:17.552Z,88.13
2023-02-16T05:46:44.551Z,88.28
2023-02-16T05:49:10.993Z,88.16
2023-02-16T05:51:37.999Z,88.33
2023-02-16T05:54:05.310Z,88.34
2023-02-16T05:56:32.036Z,88.34
2023-02-16T05:59:00.209Z,88.15
2023-02-16T06:01:28.721Z,88.28
2023-02-16T06:03:55.531Z,88.29
2023-02-16T06:06:22.002Z,87.80
2023-02-16T06:08:48.599Z,88.28
2023-02-16T06:11:33.858Z,88.27
2023-02-16T06:14:01.621Z,87.83
2023-02-16T06:16:30.405Z,88.35
2023-02-16T06:18:57.421Z,88.28
2023-02-16T06:21:25.130Z,88.22
2023-02-16T06:23:52.203Z,88.35
2023-02-16T06:26:18.992Z,88.11
2023-02-16T06:28:45.362Z,87.95
2023-02-16T06:31:12.325Z,87.79
2023-02-16T06:33:38.749Z,87.71
2023-02-16T06:36:06.605Z,88.07
2023-02-16T06:38:33.053Z,87.64
2023-02-16T06:40:59.506Z,87.78
2023-02-16T06:43:25.970Z,87.87
2023-02-16T06:45:53.105Z,87.72
2023-02-16T06:48:19.800Z,87.39
2023-02-16T06:50:46.429Z,87.68
2023-02-16T06:53:12.861Z,87.61
2023-02-16T06:55:39.238Z,87.70
2023-02-16T06:58:07.237Z,87.68
2023-02-16T07:00:34.986Z,87.32
2023-02-16T07:03:02.193Z,87.77
2023-02-16T07:05:28.776Z,87.88
2023-02-16T07:07:55.626Z,87.69
2023-02-16T07:10:22.012Z,87.32
2023-02-16T07:12:49.002Z,87.67
2023-02-16T07:15:15.401Z,87.32
2023-02-16T07:17:41.794Z,87.31
2023-02-16T07:20:09.614Z,87.49
2023-02-16T07:22:36.055Z,87.13
2023-02-16T07:25:02.589Z,87.54
2023-02-16T07:27:28.994Z,87.30
2023-02-16T07:29:55.596Z,87.60
2023-02-16T07:32:22.064Z,87.39
2023-02-16T07:34:48.556Z,87.73
2023-02-16T07:37:14.990Z,88.01
2023-02-16T07:39:41.477Z,88.02
2023-02-16T07:42:07.981Z,87.98
2023-02-16T07:44:34.361Z,87.92
2023-02-16T07:47:00.852Z,87.82
2023-02-16T07:49:27.239Z,87.99
2023-02-16T07:51:53.717Z,88.23
2023-02-16T07:54:20.210Z,88.42
2023-02-16T07:56:46.967Z,88.29
2023-02-16T07:59:15.449Z,88.39
2023-02-16T08:01:42.490Z,88.43
2023-02-16T08:04:08.977Z,88.24
2023-02-16T08:06:35.615Z,88.48
2023-02-16T08:09:02.032Z,88.67
2023-02-16T08:11:28.506Z,88.60
2023-02-16T08:13:54.990Z,88.51
2023-02-16T08:16:26.538Z,88.42
2023-02-16T08:18:56.153Z,88.41
2023-02-16T08:21:25.643Z,88.48
2023-02-16T08:23:58.300Z,88.49
2023-02-16T08:26:28.867Z,88.41
2023-02-16T08:28:56.549Z,88.30
2023-02-16T08:31:26.367Z,88.00
2023-02-16T08:33:54.919Z,87.78
2023-02-16T08:36:26.371Z,87.40
2023-02-16T08:38:53.540Z,87.17
2023-02-16T08:41:22.590Z,86.82
2023-02-16T08:43:50.174Z,86.75
2023-02-16T08:46:17.931Z,86.96
2023-02-16T08:48:45.256Z,87.24
2023-02-16T08:51:17.501Z,87.05
2023-02-16T08:53:45.426Z,86.91
2023-02-16T08:56:12.270Z,87.26
2023-02-16T08:58:38.733Z,87.26
2023-02-16T09:01:08.111Z,87.41
2023-02-16T09:03:37.218Z,87.28
2023-02-16T09:06:05.593Z,87.22
2023-02-16T09:08:32.925Z,87.15
2023-02-16T09:11:03.793Z,86.97
2023-02-16T09:13:30.566Z,86.50
2023-02-16T09:16:04.262Z,86.10
2023-02-16T09:18:32.944Z,85.56
2023-02-16T09:21:05.117Z,85.18
2023-02-16T09:23:31.561Z,84.28
2023-02-16T09:25:59.619Z,82.82
2023-02-16T09:28:26.016Z,82.08
2023-02-16T09:30:54.274Z,80.84
2023-02-16T09:33:21.713Z,80.09
2023-02-16T09:35:48.151Z,78.78
2023-02-16T09:38:16.744Z,77.55
2023-02-16T09:40:44.774Z,76.76
2023-02-16T09:43:29.176Z,75.05
2023-02-16T09:45:58.760Z,74.70
2023-02-16T09:48:35.914Z,73.21
2023-02-16T09:51:04.251Z,71.29
2023-02-16T09:53:40.774Z,69.41
2023-02-16T09:56:22.562Z,68.45
2023-02-16T09:58:56.161Z,67.61
2023-02-16T10:01:39.875Z,67.54
2023-02-16T10:04:21.568Z,67.77
2023-02-16T10:07:00.114Z,66.98
2023-02-16T10:09:29.617Z,66.91
2023-02-16T10:12:13.195Z,65.76
2023-02-16T10:14:45.649Z,65.42
2023-02-16T10:17:33.892Z,64.55
2023-02-16T10:20:23.664Z,62.60
2023-02-16T10:23:00.918Z,61.17
2023-02-16T10:25:37.220Z,59.89
2023-02-16T10:28:35.782Z,58.26
2023-02-16T10:31:12.476Z,56.21
2023-02-16T10:33:45.002Z,54.82
2023-02-16T10:36:38.453Z,54.33
2023-02-16T10:39:24.150Z,53.04
2023-02-16T10:42:27.097Z,53.24
2023-02-16T10:45:28.296Z,52.89
2023-02-16T10:47:54.797Z,52.60
2023-02-16T10:50:39.883Z,52.51
2023-02-16T10:53:15.730Z,53.25
2023-02-16T10:55:42.312Z,54.73
2023-02-16T10:58:26.952Z,54.04
2023-02-16T11:01:19.248Z,55.72
2023-02-16T11:03:49.227Z,56.54
2023-02-16T11:06:19.664Z,56.35
2023-02-16T11:08:50.946Z,56.26
2023-02-16T11:11:19.731Z,57.35
2023-02-16T11:13:50.193Z,62.68
2023-02-16T11:16:23.540Z,59.34
2023-02-16T11:19:03.193Z,57.87
2023-02-16T11:22:06.395Z,59.05
2023-02-16T11:24:37.931Z,58.39
2023-02-16T11:27:13.650Z,63.99
2023-02-16T11:29:40.884Z,61.54
2023-02-16T11:32:09.441Z,63.58
2023-02-16T11:34:42.453Z,66.25
2023-02-16T11:37:34.954Z,62.43
2023-02-16T11:40:20.415Z,63.01
2023-02-16T11:42:49.609Z,61.95
2023-02-16T11:45:34.582Z,62.83
2023-02-16T11:48:04.625Z,63.36
2023-02-16T11:50:39.694Z,63.97
2023-02-16T11:53:27.377Z,63.23
2023-02-16T11:56:12.815Z,71.11
2023-02-16T11:58:40.466Z,69.26
2023-02-16T12:01:24.727Z,66.16
2023-02-16T12:04:08.308Z,67.80
2023-02-16T12:06:57.973Z,68.26
2023-02-16T12:09:45.728Z,69.47
2023-02-16T12:12:31.411Z,70.37
2023-02-16T12:15:21.106Z,72.69
2023-02-16T12:18:04.878Z,72.64
2023-02-16T12:20:36.440Z,73.87
2023-02-16T12:23:39.379Z,75.61
2023-02-16T12:26:24.655Z,75.74
2023-02-16T12:29:08.861Z,76.19
2023-02-16T12:32:07.293Z,75.07
2023-02-16T12:35:00.664Z,78.16
2023-02-16T12:37:27.132Z,78.18
2023-02-16T12:40:11.872Z,80.33
2023-02-16T12:43:15.258Z,82.01
2023-02-16T12:45:44.633Z,83.58
2023-02-16T12:48:10.997Z,82.99
2023-02-16T12:50:41.881Z,84.29
2023-02-16T12:53:20.032Z,85.79
2023-02-16T12:55:51.102Z,85.51
2023-02-16T12:58:23.665Z,85.26
2023-02-16T13:01:01.407Z,85.17
2023-02-16T13:03:46.550Z,86.46
2023-02-16T13:06:45.471Z,86.59
2023-02-16T13:09:43.989Z,88.06
2023-02-16T13:12:25.970Z,88.27
2023-02-16T13:15:10.484Z,87.72
2023-02-16T13:17:41.673Z,87.12
2023-02-16T13:20:17.721Z,87.35
2023-02-16T13:22:53.680Z,86.58
2023-02-16T13:25:41.887Z,86.75
2023-02-16T13:28:31.287Z,86.77
2023-02-16T13:31:12.838Z,86.24
2023-02-16T13:34:10.656Z,86.46
2023-02-16T13:36:54.171Z,86.87
2023-02-16T13:39:29.580Z,86.86
2023-02-16T13:42:08.560Z,87.22
2023-02-16T13:44:42.760Z,86.82
2023-02-16T13:47:17.894Z,87.35
2023-02-16T13:49:46.380Z,87.02
2023-02-16T13:52:41.913Z,87.26
2023-02-16T13:55:30.011Z,87.81
2023-02-16T13:58:02.167Z,88.05
2023-02-16T14:00:44.966Z,88.51
2023-02-16T14:03:17.511Z,88.37
2023-02-16T14:05:46.766Z,88.30
2023-02-16T14:08:19.370Z,88.86
2023-02-16T14:10:58.749Z,88.73
2023-02-16T14:13:33.206Z,88.79
2023-02-16T14:16:10.510Z,88.47
2023-02-16T14:18:47.935Z,88.91
2023-02-16T14:21:35.315Z,88.67
2023-02-16T14:24:03.873Z,88.90
2023-02-16T14:26:31.974Z,88.93
2023-02-16T14:29:18.247Z,88.71
2023-02-16T14:31:53.823Z,88.90
2023-02-16T14:34:29.191Z,88.96
2023-02-16T14:37:14.459Z,88.92
2023-02-16T14:40:04.031Z,89.13
2023-02-16T14:42:33.004Z,89.14
2023-02-16T14:45:14.439Z,88.66
2023-02-16T14:47:46.984Z,88.79
2023-02-16T14:50:22.796Z,88.86
2023-02-16T14:53:17.127Z,88.88
2023-02-16T14:56:09.026Z,88.83
2023-02-16T14:58:44.469Z,88.78
2023-02-16T15:01:13.686Z,88.80
2023-02-16T15:03:48.231Z,89.02
2023-02-16T15:06:19.646Z,89.32
2023-02-16T15:08:56.927Z,89.11
2023-02-16T15:12:00.831Z,88.98
2023-02-16T15:14:28.688Z,89.17
2023-02-16T15:16:57.675Z,89.57
2023-02-16T15:19:30.848Z,89.17
2023-02-16T15:22:10.997Z,89.26
2023-02-16T15:24:37.456Z,89.33
2023-02-16T15:27:04.202Z,89.11
2023-02-16T15:29:31.263Z,88.99
2023-02-16T15:31:59.504Z,87.67
2023-02-16T15:34:33.231Z,86.76
2023-02-16T15:37:02.250Z,86.21
2023-02-16T15:39:46.444Z,84.81
2023-02-16T15:42:14.933Z,84.81
2023-02-16T15:44:43.544Z,83.43
2023-02-16T15:47:13.099Z,82.03
2023-02-16T15:49:40.019Z,81.55
2023-02-16T15:52:19.393Z,79.95
2023-02-16T15:54:47.106Z,78.64
2023-02-16T15:57:26.548Z,77.23
2023-02-16T16:00:04.039Z,74.92
2023-02-16T16:02:41.467Z,71.42
2023-02-16T16:05:20.730Z,68.86
2023-02-16T16:07:47.766Z,65.13
2023-02-16T16:10:29.517Z,61.52
2023-02-16T16:13:00.820Z,58.68
2023-02-16T16:15:30.284Z,56.18
2023-02-16T16:17:59.737Z,52.33
2023-02-16T16:20:31.515Z,49.30
2023-02-16T16:23:04.537Z,44.61
2023-02-16T16:25:34.044Z,40.39
2023-02-16T16:28:05.639Z,36.34
2023-02-16T16:30:35.238Z,33.14
2023-02-16T16:33:12.779Z,30.02
2023-02-16T16:35:50.397Z,25.39
2023-02-16T16:38:27.560Z,17.36
2023-02-16T16:40:57.287Z,12.67
2023-02-16T16:43:28.929Z,9.38
2023-02-16T16:46:28.811Z,0.00
2023-02-16T16:49:00.772Z,0.00
2023-02-16T16:51:31.397Z,0.00
2023-02-16T16:54:03.993Z,0.00
2023-02-16T16:56:36.017Z,0.00
2023-02-16T16:59:03.302Z,0.00
2023-02-16T17:01:30.358Z,0.00
2023-02-16T17:03:57.392Z,0.00
2023-02-16T17:06:25.434Z,0.00
2023-02-16T17:08:51.978Z,0.00
2023-02-16T17:11:28.481Z,0.00
2023-02-16T17:13:56.026Z,0.00
2023-02-16T17:16:26.899Z,0.00
2023-02-16T17:18:53.328Z,0.00
2023-02-16T17:21:20.123Z,0.00
2023-02-16T17:23:52.871Z,0.00
2023-02-16T17:26:20.479Z,0.00
2023-02-16T17:28:47.041Z,0.00
2023-02-16T17:31:13.540Z,0.00
2023-02-16T17:33:40.066Z,0.00
2023-02-16T17:36:08.071Z,0.00
2023-02-16T17:38:34.721Z,0.00
2023-02-16T17:41:01.177Z,0.00
2023-02-16T17:43:28.159Z,0.00
2023-02-16T17:45:56.783Z,0.00
2023-02-16T17:48:30.177Z,0.00
2023-02-16T17:50:57.992Z,0.00
2023-02-16T17:53:25.933Z,0.00
2023-02-16T17:55:55.524Z,0.00
2023-02-16T17:58:23.216Z,0.00
2023-02-16T18:00:50.007Z,0.00
2023-02-16T18:03:17.881Z,0.00
2023-02-16T18:05:44.681Z,0.00
2023-02-16T18:08:12.522Z,0.00
2023-02-16T18:10:45.025Z,0.00
2023-02-16T18:13:12.707Z,0.00
2023-02-16T18:15:41.496Z,0.00
2023-02-16T18:18:08.333Z,0.00
2023-02-16T18:20:35.185Z,0.00
2023-02-16T18:23:01.734Z,0.00
2023-02-16T18:25:28.501Z,0.00
2023-02-16T18:27:54.964Z,0.00
2023-02-16T18:30:21.971Z,0.00
2023-02-16T18:32:48.621Z,0.00
2023-02-16T18:35:15.529Z,0.00
2023-02-16T18:37:42.479Z,0.00
2023-02-16T18:40:11.648Z,0.00
2023-02-16T18:42:38.266Z,0.00
2023-02-16T18:45:05.732Z,0.00
2023-02-16T18:47:32.319Z,0.00
2023-02-16T18:49:58.932Z,0.00
2023-02-16T18:52:25.545Z,0.00
2023-02-16T18:54:52.448Z,0.00
2023-02-16T18:57:19.140Z,0.00
2023-02-16T18:59:45.561Z,0.00
2023-02-16T19:02:12.582Z,0.00
2023-02-16T19:04:39.073Z,0.00
2023-02-16T19:07:05.724Z,0.00
2023-02-16T19:09:32.194Z,0.00
2023-02-16T19:11:58.681Z,0.00
2023-02-16T19:14:25.138Z,0.00
2023-02-16T19:16:51.606Z,0.00
2023-02-16T19:19:18.128Z,0.00
2023-02-16T22:39:00.380Z,0.00
2023-02-16T22:56:12.403Z,0.00
2023-02-16T22:58:38.954Z,0.00
2023-02-16T23:01:13.879Z,0.00
2023-02-16T23:03:41.241Z,0.00
2023-02-16T23:06:15.712Z,0.00
2023-02-16T23:08:44.093Z,0.00
2023-02-16T23:11:10.919Z,0.00
2023-02-16T23:13:37.625Z,0.00
2023-02-16T23:16:11.037Z,0.00
2023-02-16T23:18:37.863Z,0.00
2023-02-16T23:21:08.466Z,0.00
2023-02-16T23:23:35.443Z,0.00
2023-02-16T23:26:01.984Z,0.00
2023-02-16T23:28:28.354Z,0.00
2023-02-16T23:30:56.615Z,0.00
2023-02-16T23:33:23.494Z,0.00
2023-02-16T23:35:50.096Z,0.00
2023-02-16T23:38:17.878Z,0.00
2023-02-16T23:40:44.301Z,0.00
2023-02-16T23:43:10.871Z,0.00
2023-02-16T23:45:37.634Z,0.00
2023-02-16T23:48:04.255Z,0.00
2023-02-16T23:50:30.710Z,0.00
2023-02-16T23:52:57.164Z,0.00
2023-02-16T23:55:23.601Z,0.00
2023-02-16T23:57:50.028Z,0.00
